<?xml version="1.0" encoding="UTF-8" standalone="no" ?>
<gpx xmlns="http://www.topografix.com/GPX/1/1" xmlns:xsi="http://www.w3.org/2001/XMLSchema-instance" xsi:schemaLocation="http://www.topografix.com/GPX/1/1 http://www.topografix.com/GPX/1/1/gpx.xsd" version="1.1" creator="VisuGPX - https://www.visugpx.com">
  <metadata>
    <name>Entre Biron et La Sauvetat</name>
    <desc><![CDATA[Une petite vingtaine de kilomètre faisable aussi bien à pied qu\'en vélo en famille.]]></desc>
  </metadata>
  <trk>
    <name><![CDATA[02-DEC-12 10:43:22]]></name>
    <trkseg>
      <trkpt lat="44.63088" lon="0.87149">
        <ele>208.74</ele>
        <time>2012-12-02T07:59:17Z</time>
      </trkpt>
      <trkpt lat="44.63087" lon="0.87151">
        <ele>209.22</ele>
        <time>2012-12-02T07:59:44Z</time>
      </trkpt>
      <trkpt lat="44.63087" lon="0.8715">
        <ele>210.67</ele>
        <time>2012-12-02T08:00:13Z</time>
      </trkpt>
      <trkpt lat="44.63086" lon="0.8715">
        <ele>211.63</ele>
        <time>2012-12-02T08:00:40Z</time>
      </trkpt>
      <trkpt lat="44.63088" lon="0.87149">
        <ele>208.26</ele>
        <time>2012-12-02T08:01:09Z</time>
      </trkpt>
      <trkpt lat="44.63089" lon="0.87152">
        <ele>206.82</ele>
        <time>2012-12-02T08:01:43Z</time>
      </trkpt>
      <trkpt lat="44.6309" lon="0.87152">
        <ele>205.86</ele>
        <time>2012-12-02T08:02:19Z</time>
      </trkpt>
      <trkpt lat="44.63091" lon="0.87152">
        <ele>205.38</ele>
        <time>2012-12-02T08:02:52Z</time>
      </trkpt>
      <trkpt lat="44.6309" lon="0.87153">
        <ele>206.34</ele>
        <time>2012-12-02T08:03:14Z</time>
      </trkpt>
      <trkpt lat="44.63096" lon="0.87154">
        <ele>204.9</ele>
        <time>2012-12-02T08:03:26Z</time>
      </trkpt>
      <trkpt lat="44.63122" lon="0.87129">
        <ele>205.86</ele>
        <time>2012-12-02T08:03:39Z</time>
      </trkpt>
      <trkpt lat="44.6316" lon="0.87113">
        <ele>207.3</ele>
        <time>2012-12-02T08:03:53Z</time>
      </trkpt>
      <trkpt lat="44.63215" lon="0.87118">
        <ele>209.22</ele>
        <time>2012-12-02T08:04:10Z</time>
      </trkpt>
      <trkpt lat="44.63261" lon="0.87153">
        <ele>210.19</ele>
        <time>2012-12-02T08:04:25Z</time>
      </trkpt>
      <trkpt lat="44.63287" lon="0.87209">
        <ele>212.11</ele>
        <time>2012-12-02T08:04:39Z</time>
      </trkpt>
      <trkpt lat="44.63304" lon="0.873">
        <ele>214.03</ele>
        <time>2012-12-02T08:04:57Z</time>
      </trkpt>
      <trkpt lat="44.63309" lon="0.87316">
        <ele>214.03</ele>
        <time>2012-12-02T08:05:00Z</time>
      </trkpt>
      <trkpt lat="44.63332" lon="0.87353">
        <ele>211.63</ele>
        <time>2012-12-02T08:05:07Z</time>
      </trkpt>
      <trkpt lat="44.63382" lon="0.87455">
        <ele>204.9</ele>
        <time>2012-12-02T08:05:21Z</time>
      </trkpt>
      <trkpt lat="44.63448" lon="0.87605">
        <ele>199.61</ele>
        <time>2012-12-02T08:05:38Z</time>
      </trkpt>
      <trkpt lat="44.63452" lon="0.87613">
        <ele>199.61</ele>
        <time>2012-12-02T08:05:39Z</time>
      </trkpt>
      <trkpt lat="44.63482" lon="0.87741">
        <ele>197.21</ele>
        <time>2012-12-02T08:05:55Z</time>
      </trkpt>
      <trkpt lat="44.63497" lon="0.87806">
        <ele>196.73</ele>
        <time>2012-12-02T08:06:05Z</time>
      </trkpt>
      <trkpt lat="44.63494" lon="0.87834">
        <ele>197.21</ele>
        <time>2012-12-02T08:06:10Z</time>
      </trkpt>
      <trkpt lat="44.63462" lon="0.87836">
        <ele>198.17</ele>
        <time>2012-12-02T08:06:21Z</time>
      </trkpt>
      <trkpt lat="44.63408" lon="0.87833">
        <ele>199.61</ele>
        <time>2012-12-02T08:06:36Z</time>
      </trkpt>
      <trkpt lat="44.63367" lon="0.87832">
        <ele>202.98</ele>
        <time>2012-12-02T08:06:49Z</time>
      </trkpt>
      <trkpt lat="44.63341" lon="0.8783">
        <ele>206.34</ele>
        <time>2012-12-02T08:07:00Z</time>
      </trkpt>
      <trkpt lat="44.63312" lon="0.87829">
        <ele>207.3</ele>
        <time>2012-12-02T08:07:11Z</time>
      </trkpt>
      <trkpt lat="44.63269" lon="0.87827">
        <ele>205.86</ele>
        <time>2012-12-02T08:07:23Z</time>
      </trkpt>
      <trkpt lat="44.63232" lon="0.87818">
        <ele>206.82</ele>
        <time>2012-12-02T08:07:35Z</time>
      </trkpt>
      <trkpt lat="44.63189" lon="0.87794">
        <ele>207.78</ele>
        <time>2012-12-02T08:07:49Z</time>
      </trkpt>
      <trkpt lat="44.63147" lon="0.8777">
        <ele>209.22</ele>
        <time>2012-12-02T08:08:03Z</time>
      </trkpt>
      <trkpt lat="44.63117" lon="0.87753">
        <ele>210.67</ele>
        <time>2012-12-02T08:08:14Z</time>
      </trkpt>
      <trkpt lat="44.63093" lon="0.8774">
        <ele>213.07</ele>
        <time>2012-12-02T08:08:24Z</time>
      </trkpt>
      <trkpt lat="44.63058" lon="0.87723">
        <ele>213.07</ele>
        <time>2012-12-02T08:08:34Z</time>
      </trkpt>
      <trkpt lat="44.63025" lon="0.87703">
        <ele>214.03</ele>
        <time>2012-12-02T08:08:44Z</time>
      </trkpt>
      <trkpt lat="44.62991" lon="0.87681">
        <ele>212.11</ele>
        <time>2012-12-02T08:08:54Z</time>
      </trkpt>
      <trkpt lat="44.62982" lon="0.87702">
        <ele>204.42</ele>
        <time>2012-12-02T08:09:02Z</time>
      </trkpt>
      <trkpt lat="44.62981" lon="0.87714">
        <ele>203.46</ele>
        <time>2012-12-02T08:09:04Z</time>
      </trkpt>
      <trkpt lat="44.62958" lon="0.87829">
        <ele>199.61</ele>
        <time>2012-12-02T08:09:24Z</time>
      </trkpt>
      <trkpt lat="44.62935" lon="0.87868">
        <ele>199.13</ele>
        <time>2012-12-02T08:09:34Z</time>
      </trkpt>
      <trkpt lat="44.62896" lon="0.87897">
        <ele>199.13</ele>
        <time>2012-12-02T08:09:45Z</time>
      </trkpt>
      <trkpt lat="44.62872" lon="0.87904">
        <ele>197.69</ele>
        <time>2012-12-02T08:09:51Z</time>
      </trkpt>
      <trkpt lat="44.6286" lon="0.87893">
        <ele>196.73</ele>
        <time>2012-12-02T08:09:54Z</time>
      </trkpt>
      <trkpt lat="44.62842" lon="0.87882">
        <ele>195.77</ele>
        <time>2012-12-02T08:09:57Z</time>
      </trkpt>
      <trkpt lat="44.62822" lon="0.87891">
        <ele>193.84</ele>
        <time>2012-12-02T08:10:01Z</time>
      </trkpt>
      <trkpt lat="44.62758" lon="0.87977">
        <ele>189.52</ele>
        <time>2012-12-02T08:10:14Z</time>
      </trkpt>
      <trkpt lat="44.62745" lon="0.87992">
        <ele>190.48</ele>
        <time>2012-12-02T08:10:17Z</time>
      </trkpt>
      <trkpt lat="44.62698" lon="0.88047">
        <ele>194.32</ele>
        <time>2012-12-02T08:10:30Z</time>
      </trkpt>
      <trkpt lat="44.62689" lon="0.88056">
        <ele>194.32</ele>
        <time>2012-12-02T08:10:33Z</time>
      </trkpt>
      <trkpt lat="44.62676" lon="0.881">
        <ele>191.44</ele>
        <time>2012-12-02T08:10:43Z</time>
      </trkpt>
      <trkpt lat="44.62668" lon="0.88125">
        <ele>190.96</ele>
        <time>2012-12-02T08:10:48Z</time>
      </trkpt>
      <trkpt lat="44.62664" lon="0.88136">
        <ele>190.48</ele>
        <time>2012-12-02T08:10:50Z</time>
      </trkpt>
      <trkpt lat="44.6264" lon="0.88168">
        <ele>189.04</ele>
        <time>2012-12-02T08:10:57Z</time>
      </trkpt>
      <trkpt lat="44.62629" lon="0.88176">
        <ele>188.08</ele>
        <time>2012-12-02T08:10:59Z</time>
      </trkpt>
      <trkpt lat="44.62606" lon="0.88193">
        <ele>185.67</ele>
        <time>2012-12-02T08:11:03Z</time>
      </trkpt>
      <trkpt lat="44.6257" lon="0.88215">
        <ele>182.79</ele>
        <time>2012-12-02T08:11:09Z</time>
      </trkpt>
      <trkpt lat="44.62551" lon="0.88224">
        <ele>181.83</ele>
        <time>2012-12-02T08:11:12Z</time>
      </trkpt>
      <trkpt lat="44.62527" lon="0.88219">
        <ele>180.38</ele>
        <time>2012-12-02T08:11:16Z</time>
      </trkpt>
      <trkpt lat="44.6251" lon="0.88206">
        <ele>178.94</ele>
        <time>2012-12-02T08:11:20Z</time>
      </trkpt>
      <trkpt lat="44.62492" lon="0.88197">
        <ele>176.06</ele>
        <time>2012-12-02T08:11:24Z</time>
      </trkpt>
      <trkpt lat="44.62464" lon="0.88227">
        <ele>171.25</ele>
        <time>2012-12-02T08:11:31Z</time>
      </trkpt>
      <trkpt lat="44.62437" lon="0.88236">
        <ele>170.29</ele>
        <time>2012-12-02T08:11:36Z</time>
      </trkpt>
      <trkpt lat="44.62428" lon="0.88232">
        <ele>169.81</ele>
        <time>2012-12-02T08:11:38Z</time>
      </trkpt>
      <trkpt lat="44.62415" lon="0.88216">
        <ele>170.29</ele>
        <time>2012-12-02T08:11:42Z</time>
      </trkpt>
      <trkpt lat="44.62409" lon="0.88193">
        <ele>170.77</ele>
        <time>2012-12-02T08:11:47Z</time>
      </trkpt>
      <trkpt lat="44.62398" lon="0.88199">
        <ele>170.29</ele>
        <time>2012-12-02T08:11:51Z</time>
      </trkpt>
      <trkpt lat="44.62392" lon="0.8821">
        <ele>168.85</ele>
        <time>2012-12-02T08:11:53Z</time>
      </trkpt>
      <trkpt lat="44.62364" lon="0.88259">
        <ele>165.48</ele>
        <time>2012-12-02T08:12:00Z</time>
      </trkpt>
      <trkpt lat="44.62354" lon="0.88281">
        <ele>164.52</ele>
        <time>2012-12-02T08:12:03Z</time>
      </trkpt>
      <trkpt lat="44.62331" lon="0.88294">
        <ele>163.08</ele>
        <time>2012-12-02T08:12:08Z</time>
      </trkpt>
      <trkpt lat="44.62305" lon="0.88295">
        <ele>163.08</ele>
        <time>2012-12-02T08:12:13Z</time>
      </trkpt>
      <trkpt lat="44.62278" lon="0.88298">
        <ele>162.6</ele>
        <time>2012-12-02T08:12:20Z</time>
      </trkpt>
      <trkpt lat="44.62243" lon="0.88319">
        <ele>165.48</ele>
        <time>2012-12-02T08:12:31Z</time>
      </trkpt>
      <trkpt lat="44.62235" lon="0.88323">
        <ele>165.96</ele>
        <time>2012-12-02T08:12:36Z</time>
      </trkpt>
      <trkpt lat="44.62198" lon="0.88319">
        <ele>163.56</ele>
        <time>2012-12-02T08:12:50Z</time>
      </trkpt>
      <trkpt lat="44.62158" lon="0.88318">
        <ele>164.52</ele>
        <time>2012-12-02T08:13:03Z</time>
      </trkpt>
      <trkpt lat="44.62138" lon="0.88291">
        <ele>164.52</ele>
        <time>2012-12-02T08:13:13Z</time>
      </trkpt>
      <trkpt lat="44.62135" lon="0.88257">
        <ele>164.52</ele>
        <time>2012-12-02T08:13:20Z</time>
      </trkpt>
      <trkpt lat="44.62124" lon="0.88246">
        <ele>165</ele>
        <time>2012-12-02T08:13:25Z</time>
      </trkpt>
      <trkpt lat="44.62094" lon="0.88268">
        <ele>166.93</ele>
        <time>2012-12-02T08:13:38Z</time>
      </trkpt>
      <trkpt lat="44.62059" lon="0.88274">
        <ele>165.96</ele>
        <time>2012-12-02T08:13:51Z</time>
      </trkpt>
      <trkpt lat="44.62026" lon="0.88286">
        <ele>165.96</ele>
        <time>2012-12-02T08:14:05Z</time>
      </trkpt>
      <trkpt lat="44.62" lon="0.88292">
        <ele>167.41</ele>
        <time>2012-12-02T08:14:17Z</time>
      </trkpt>
      <trkpt lat="44.61971" lon="0.88301">
        <ele>176.54</ele>
        <time>2012-12-02T08:14:31Z</time>
      </trkpt>
      <trkpt lat="44.61948" lon="0.88305">
        <ele>183.27</ele>
        <time>2012-12-02T08:14:42Z</time>
      </trkpt>
      <trkpt lat="44.61922" lon="0.88316">
        <ele>187.11</ele>
        <time>2012-12-02T08:14:54Z</time>
      </trkpt>
      <trkpt lat="44.6191" lon="0.88323">
        <ele>188.56</ele>
        <time>2012-12-02T08:14:59Z</time>
      </trkpt>
      <trkpt lat="44.61879" lon="0.88338">
        <ele>194.32</ele>
        <time>2012-12-02T08:15:12Z</time>
      </trkpt>
      <trkpt lat="44.6186" lon="0.88366">
        <ele>201.53</ele>
        <time>2012-12-02T08:15:25Z</time>
      </trkpt>
      <trkpt lat="44.6185" lon="0.88373">
        <ele>204.9</ele>
        <time>2012-12-02T08:15:31Z</time>
      </trkpt>
      <trkpt lat="44.61832" lon="0.88395">
        <ele>208.26</ele>
        <time>2012-12-02T08:15:42Z</time>
      </trkpt>
      <trkpt lat="44.61816" lon="0.88407">
        <ele>209.22</ele>
        <time>2012-12-02T08:15:51Z</time>
      </trkpt>
      <trkpt lat="44.61796" lon="0.88418">
        <ele>211.63</ele>
        <time>2012-12-02T08:16:02Z</time>
      </trkpt>
      <trkpt lat="44.61781" lon="0.88426">
        <ele>211.63</ele>
        <time>2012-12-02T08:16:14Z</time>
      </trkpt>
      <trkpt lat="44.61778" lon="0.88431">
        <ele>213.07</ele>
        <time>2012-12-02T08:16:31Z</time>
      </trkpt>
      <trkpt lat="44.61763" lon="0.8844">
        <ele>214.03</ele>
        <time>2012-12-02T08:16:40Z</time>
      </trkpt>
      <trkpt lat="44.61755" lon="0.88448">
        <ele>215.95</ele>
        <time>2012-12-02T08:16:46Z</time>
      </trkpt>
      <trkpt lat="44.61739" lon="0.88451">
        <ele>216.43</ele>
        <time>2012-12-02T08:16:53Z</time>
      </trkpt>
      <trkpt lat="44.61716" lon="0.88467">
        <ele>222.68</ele>
        <time>2012-12-02T08:17:08Z</time>
      </trkpt>
      <trkpt lat="44.61682" lon="0.8846">
        <ele>214.03</ele>
        <time>2012-12-02T08:17:22Z</time>
      </trkpt>
      <trkpt lat="44.61654" lon="0.88451">
        <ele>212.11</ele>
        <time>2012-12-02T08:17:35Z</time>
      </trkpt>
      <trkpt lat="44.61608" lon="0.88453">
        <ele>208.26</ele>
        <time>2012-12-02T08:17:50Z</time>
      </trkpt>
      <trkpt lat="44.61567" lon="0.88456">
        <ele>208.26</ele>
        <time>2012-12-02T08:18:03Z</time>
      </trkpt>
      <trkpt lat="44.61516" lon="0.88462">
        <ele>209.22</ele>
        <time>2012-12-02T08:18:17Z</time>
      </trkpt>
      <trkpt lat="44.61465" lon="0.88476">
        <ele>209.22</ele>
        <time>2012-12-02T08:18:30Z</time>
      </trkpt>
      <trkpt lat="44.61428" lon="0.88482">
        <ele>206.82</ele>
        <time>2012-12-02T08:18:41Z</time>
      </trkpt>
      <trkpt lat="44.61419" lon="0.88481">
        <ele>205.86</ele>
        <time>2012-12-02T08:18:43Z</time>
      </trkpt>
      <trkpt lat="44.61384" lon="0.88486">
        <ele>202.98</ele>
        <time>2012-12-02T08:18:49Z</time>
      </trkpt>
      <trkpt lat="44.61335" lon="0.88515">
        <ele>197.69</ele>
        <time>2012-12-02T08:18:57Z</time>
      </trkpt>
      <trkpt lat="44.61259" lon="0.88575">
        <ele>194.32</ele>
        <time>2012-12-02T08:19:12Z</time>
      </trkpt>
      <trkpt lat="44.61233" lon="0.88588">
        <ele>195.28</ele>
        <time>2012-12-02T08:19:18Z</time>
      </trkpt>
      <trkpt lat="44.61216" lon="0.88601">
        <ele>195.77</ele>
        <time>2012-12-02T08:19:22Z</time>
      </trkpt>
      <trkpt lat="44.61187" lon="0.88626">
        <ele>195.28</ele>
        <time>2012-12-02T08:19:28Z</time>
      </trkpt>
      <trkpt lat="44.61141" lon="0.88668">
        <ele>193.36</ele>
        <time>2012-12-02T08:19:38Z</time>
      </trkpt>
      <trkpt lat="44.61114" lon="0.88649">
        <ele>192.88</ele>
        <time>2012-12-02T08:19:48Z</time>
      </trkpt>
      <trkpt lat="44.61107" lon="0.88641">
        <ele>192.88</ele>
        <time>2012-12-02T08:19:50Z</time>
      </trkpt>
      <trkpt lat="44.61097" lon="0.88628">
        <ele>192.88</ele>
        <time>2012-12-02T08:19:53Z</time>
      </trkpt>
      <trkpt lat="44.61056" lon="0.88585">
        <ele>195.77</ele>
        <time>2012-12-02T08:20:06Z</time>
      </trkpt>
      <trkpt lat="44.61054" lon="0.88583">
        <ele>196.25</ele>
        <time>2012-12-02T08:20:07Z</time>
      </trkpt>
      <trkpt lat="44.61045" lon="0.88597">
        <ele>194.8</ele>
        <time>2012-12-02T08:20:15Z</time>
      </trkpt>
      <trkpt lat="44.61044" lon="0.88612">
        <ele>193.84</ele>
        <time>2012-12-02T08:20:18Z</time>
      </trkpt>
      <trkpt lat="44.61045" lon="0.88664">
        <ele>190</ele>
        <time>2012-12-02T08:20:25Z</time>
      </trkpt>
      <trkpt lat="44.61045" lon="0.88724">
        <ele>185.67</ele>
        <time>2012-12-02T08:20:32Z</time>
      </trkpt>
      <trkpt lat="44.61007" lon="0.88753">
        <ele>187.11</ele>
        <time>2012-12-02T08:20:43Z</time>
      </trkpt>
      <trkpt lat="44.60966" lon="0.88785">
        <ele>187.59</ele>
        <time>2012-12-02T08:20:56Z</time>
      </trkpt>
      <trkpt lat="44.6093" lon="0.88819">
        <ele>191.92</ele>
        <time>2012-12-02T08:21:11Z</time>
      </trkpt>
      <trkpt lat="44.60891" lon="0.88851">
        <ele>193.36</ele>
        <time>2012-12-02T08:21:26Z</time>
      </trkpt>
      <trkpt lat="44.60848" lon="0.88878">
        <ele>190.96</ele>
        <time>2012-12-02T08:21:38Z</time>
      </trkpt>
      <trkpt lat="44.60777" lon="0.88925">
        <ele>188.08</ele>
        <time>2012-12-02T08:21:53Z</time>
      </trkpt>
      <trkpt lat="44.60734" lon="0.88948">
        <ele>189.52</ele>
        <time>2012-12-02T08:22:02Z</time>
      </trkpt>
      <trkpt lat="44.60712" lon="0.88964">
        <ele>190.96</ele>
        <time>2012-12-02T08:22:07Z</time>
      </trkpt>
      <trkpt lat="44.60702" lon="0.88968">
        <ele>191.44</ele>
        <time>2012-12-02T08:22:09Z</time>
      </trkpt>
      <trkpt lat="44.60643" lon="0.88986">
        <ele>190.48</ele>
        <time>2012-12-02T08:22:20Z</time>
      </trkpt>
      <trkpt lat="44.60631" lon="0.88991">
        <ele>189.04</ele>
        <time>2012-12-02T08:22:22Z</time>
      </trkpt>
      <trkpt lat="44.60552" lon="0.89019">
        <ele>183.27</ele>
        <time>2012-12-02T08:22:36Z</time>
      </trkpt>
      <trkpt lat="44.60509" lon="0.89052">
        <ele>183.27</ele>
        <time>2012-12-02T08:22:45Z</time>
      </trkpt>
      <trkpt lat="44.60462" lon="0.89075">
        <ele>180.38</ele>
        <time>2012-12-02T08:22:58Z</time>
      </trkpt>
      <trkpt lat="44.60414" lon="0.89111">
        <ele>176.54</ele>
        <time>2012-12-02T08:23:08Z</time>
      </trkpt>
      <trkpt lat="44.60343" lon="0.89156">
        <ele>171.73</ele>
        <time>2012-12-02T08:23:22Z</time>
      </trkpt>
      <trkpt lat="44.60318" lon="0.89185">
        <ele>169.81</ele>
        <time>2012-12-02T08:23:27Z</time>
      </trkpt>
      <trkpt lat="44.60298" lon="0.89218">
        <ele>167.89</ele>
        <time>2012-12-02T08:23:32Z</time>
      </trkpt>
      <trkpt lat="44.6024" lon="0.89246">
        <ele>168.85</ele>
        <time>2012-12-02T08:23:43Z</time>
      </trkpt>
      <trkpt lat="44.60222" lon="0.89254">
        <ele>169.33</ele>
        <time>2012-12-02T08:23:47Z</time>
      </trkpt>
      <trkpt lat="44.60208" lon="0.89265">
        <ele>168.37</ele>
        <time>2012-12-02T08:23:50Z</time>
      </trkpt>
      <trkpt lat="44.60186" lon="0.89283">
        <ele>166.93</ele>
        <time>2012-12-02T08:23:54Z</time>
      </trkpt>
      <trkpt lat="44.60142" lon="0.89308">
        <ele>165.96</ele>
        <time>2012-12-02T08:24:03Z</time>
      </trkpt>
      <trkpt lat="44.60137" lon="0.89322">
        <ele>166.45</ele>
        <time>2012-12-02T08:24:06Z</time>
      </trkpt>
      <trkpt lat="44.60125" lon="0.89375">
        <ele>167.89</ele>
        <time>2012-12-02T08:24:19Z</time>
      </trkpt>
      <trkpt lat="44.60107" lon="0.89431">
        <ele>167.89</ele>
        <time>2012-12-02T08:24:34Z</time>
      </trkpt>
      <trkpt lat="44.60092" lon="0.8946">
        <ele>168.85</ele>
        <time>2012-12-02T08:24:44Z</time>
      </trkpt>
      <trkpt lat="44.60085" lon="0.89462">
        <ele>169.33</ele>
        <time>2012-12-02T08:24:54Z</time>
      </trkpt>
      <trkpt lat="44.60085" lon="0.8946">
        <ele>171.73</ele>
        <time>2012-12-02T08:25:11Z</time>
      </trkpt>
      <trkpt lat="44.60085" lon="0.89461">
        <ele>173.66</ele>
        <time>2012-12-02T08:25:34Z</time>
      </trkpt>
      <trkpt lat="44.60086" lon="0.89463">
        <ele>175.1</ele>
        <time>2012-12-02T08:25:50Z</time>
      </trkpt>
      <trkpt lat="44.60087" lon="0.89464">
        <ele>177.98</ele>
        <time>2012-12-02T08:26:09Z</time>
      </trkpt>
      <trkpt lat="44.60085" lon="0.89475">
        <ele>176.06</ele>
        <time>2012-12-02T08:26:13Z</time>
      </trkpt>
      <trkpt lat="44.60071" lon="0.89535">
        <ele>172.21</ele>
        <time>2012-12-02T08:26:26Z</time>
      </trkpt>
      <trkpt lat="44.60067" lon="0.89578">
        <ele>171.25</ele>
        <time>2012-12-02T08:26:33Z</time>
      </trkpt>
      <trkpt lat="44.60066" lon="0.89641">
        <ele>171.25</ele>
        <time>2012-12-02T08:26:43Z</time>
      </trkpt>
      <trkpt lat="44.6006" lon="0.89662">
        <ele>171.25</ele>
        <time>2012-12-02T08:26:47Z</time>
      </trkpt>
      <trkpt lat="44.60041" lon="0.89718">
        <ele>166.45</ele>
        <time>2012-12-02T08:26:58Z</time>
      </trkpt>
      <trkpt lat="44.6004" lon="0.89775">
        <ele>165.48</ele>
        <time>2012-12-02T08:27:09Z</time>
      </trkpt>
      <trkpt lat="44.6004" lon="0.89785">
        <ele>165</ele>
        <time>2012-12-02T08:27:11Z</time>
      </trkpt>
      <trkpt lat="44.60032" lon="0.89822">
        <ele>162.6</ele>
        <time>2012-12-02T08:27:15Z</time>
      </trkpt>
      <trkpt lat="44.60023" lon="0.89853">
        <ele>160.2</ele>
        <time>2012-12-02T08:27:18Z</time>
      </trkpt>
      <trkpt lat="44.60022" lon="0.89888">
        <ele>157.31</ele>
        <time>2012-12-02T08:27:22Z</time>
      </trkpt>
      <trkpt lat="44.60027" lon="0.89927">
        <ele>155.39</ele>
        <time>2012-12-02T08:27:27Z</time>
      </trkpt>
      <trkpt lat="44.60022" lon="0.89954">
        <ele>155.39</ele>
        <time>2012-12-02T08:27:31Z</time>
      </trkpt>
      <trkpt lat="44.59993" lon="0.90039">
        <ele>155.39</ele>
        <time>2012-12-02T08:27:46Z</time>
      </trkpt>
      <trkpt lat="44.59988" lon="0.90054">
        <ele>155.87</ele>
        <time>2012-12-02T08:27:49Z</time>
      </trkpt>
      <trkpt lat="44.59958" lon="0.9013">
        <ele>159.72</ele>
        <time>2012-12-02T08:28:06Z</time>
      </trkpt>
      <trkpt lat="44.59967" lon="0.90178">
        <ele>164.52</ele>
        <time>2012-12-02T08:28:18Z</time>
      </trkpt>
      <trkpt lat="44.59982" lon="0.90224">
        <ele>168.85</ele>
        <time>2012-12-02T08:28:32Z</time>
      </trkpt>
      <trkpt lat="44.59993" lon="0.90277">
        <ele>170.77</ele>
        <time>2012-12-02T08:28:46Z</time>
      </trkpt>
      <trkpt lat="44.59997" lon="0.90342">
        <ele>176.06</ele>
        <time>2012-12-02T08:29:02Z</time>
      </trkpt>
      <trkpt lat="44.6" lon="0.90396">
        <ele>177.5</ele>
        <time>2012-12-02T08:29:14Z</time>
      </trkpt>
      <trkpt lat="44.60006" lon="0.90481">
        <ele>179.42</ele>
        <time>2012-12-02T08:29:33Z</time>
      </trkpt>
      <trkpt lat="44.60008" lon="0.90561">
        <ele>182.31</ele>
        <time>2012-12-02T08:29:52Z</time>
      </trkpt>
      <trkpt lat="44.60009" lon="0.90598">
        <ele>187.59</ele>
        <time>2012-12-02T08:30:05Z</time>
      </trkpt>
      <trkpt lat="44.60007" lon="0.90635">
        <ele>190.48</ele>
        <time>2012-12-02T08:30:16Z</time>
      </trkpt>
      <trkpt lat="44.59984" lon="0.90675">
        <ele>192.88</ele>
        <time>2012-12-02T08:30:29Z</time>
      </trkpt>
      <trkpt lat="44.59965" lon="0.9074">
        <ele>191.44</ele>
        <time>2012-12-02T08:30:42Z</time>
      </trkpt>
      <trkpt lat="44.59955" lon="0.9082">
        <ele>193.36</ele>
        <time>2012-12-02T08:30:59Z</time>
      </trkpt>
      <trkpt lat="44.59944" lon="0.90885">
        <ele>197.21</ele>
        <time>2012-12-02T08:31:15Z</time>
      </trkpt>
      <trkpt lat="44.59931" lon="0.90924">
        <ele>200.57</ele>
        <time>2012-12-02T08:31:26Z</time>
      </trkpt>
      <trkpt lat="44.59904" lon="0.90957">
        <ele>203.46</ele>
        <time>2012-12-02T08:31:41Z</time>
      </trkpt>
      <trkpt lat="44.59879" lon="0.90986">
        <ele>206.34</ele>
        <time>2012-12-02T08:31:55Z</time>
      </trkpt>
      <trkpt lat="44.59848" lon="0.91026">
        <ele>210.19</ele>
        <time>2012-12-02T08:32:13Z</time>
      </trkpt>
      <trkpt lat="44.5982" lon="0.91077">
        <ele>214.51</ele>
        <time>2012-12-02T08:32:31Z</time>
      </trkpt>
      <trkpt lat="44.59791" lon="0.9114">
        <ele>219.8</ele>
        <time>2012-12-02T08:32:52Z</time>
      </trkpt>
      <trkpt lat="44.59774" lon="0.91196">
        <ele>222.2</ele>
        <time>2012-12-02T08:33:08Z</time>
      </trkpt>
      <trkpt lat="44.59756" lon="0.91278">
        <ele>225.57</ele>
        <time>2012-12-02T08:33:25Z</time>
      </trkpt>
      <trkpt lat="44.59748" lon="0.91341">
        <ele>226.53</ele>
        <time>2012-12-02T08:33:38Z</time>
      </trkpt>
      <trkpt lat="44.59747" lon="0.91344">
        <ele>226.05</ele>
        <time>2012-12-02T08:33:39Z</time>
      </trkpt>
      <trkpt lat="44.59733" lon="0.9139">
        <ele>221.24</ele>
        <time>2012-12-02T08:33:51Z</time>
      </trkpt>
      <trkpt lat="44.59721" lon="0.91483">
        <ele>218.84</ele>
        <time>2012-12-02T08:34:08Z</time>
      </trkpt>
      <trkpt lat="44.59699" lon="0.91567">
        <ele>217.88</ele>
        <time>2012-12-02T08:34:24Z</time>
      </trkpt>
      <trkpt lat="44.59658" lon="0.91585">
        <ele>214.03</ele>
        <time>2012-12-02T08:34:32Z</time>
      </trkpt>
      <trkpt lat="44.59635" lon="0.91599">
        <ele>213.07</ele>
        <time>2012-12-02T08:34:36Z</time>
      </trkpt>
      <trkpt lat="44.59617" lon="0.9161">
        <ele>214.03</ele>
        <time>2012-12-02T08:34:40Z</time>
      </trkpt>
      <trkpt lat="44.59588" lon="0.91613">
        <ele>215.47</ele>
        <time>2012-12-02T08:34:48Z</time>
      </trkpt>
      <trkpt lat="44.5954" lon="0.91628">
        <ele>219.32</ele>
        <time>2012-12-02T08:35:02Z</time>
      </trkpt>
      <trkpt lat="44.59532" lon="0.91629">
        <ele>218.84</ele>
        <time>2012-12-02T08:35:04Z</time>
      </trkpt>
      <trkpt lat="44.59513" lon="0.91644">
        <ele>216.43</ele>
        <time>2012-12-02T08:35:09Z</time>
      </trkpt>
      <trkpt lat="44.59506" lon="0.91656">
        <ele>215.47</ele>
        <time>2012-12-02T08:35:11Z</time>
      </trkpt>
      <trkpt lat="44.59479" lon="0.91696">
        <ele>211.15</ele>
        <time>2012-12-02T08:35:17Z</time>
      </trkpt>
      <trkpt lat="44.59459" lon="0.91709">
        <ele>210.67</ele>
        <time>2012-12-02T08:35:21Z</time>
      </trkpt>
      <trkpt lat="44.59416" lon="0.91726">
        <ele>212.11</ele>
        <time>2012-12-02T08:35:33Z</time>
      </trkpt>
      <trkpt lat="44.59391" lon="0.91729">
        <ele>216.43</ele>
        <time>2012-12-02T08:35:45Z</time>
      </trkpt>
      <trkpt lat="44.59371" lon="0.91737">
        <ele>219.32</ele>
        <time>2012-12-02T08:35:56Z</time>
      </trkpt>
      <trkpt lat="44.59334" lon="0.91753">
        <ele>224.61</ele>
        <time>2012-12-02T08:36:13Z</time>
      </trkpt>
      <trkpt lat="44.59303" lon="0.91772">
        <ele>225.57</ele>
        <time>2012-12-02T08:36:28Z</time>
      </trkpt>
      <trkpt lat="44.59278" lon="0.91796">
        <ele>225.09</ele>
        <time>2012-12-02T08:36:41Z</time>
      </trkpt>
      <trkpt lat="44.59268" lon="0.9184">
        <ele>226.53</ele>
        <time>2012-12-02T08:36:56Z</time>
      </trkpt>
      <trkpt lat="44.59264" lon="0.91848">
        <ele>227.49</ele>
        <time>2012-12-02T08:36:59Z</time>
      </trkpt>
      <trkpt lat="44.59258" lon="0.91857">
        <ele>229.41</ele>
        <time>2012-12-02T08:37:03Z</time>
      </trkpt>
      <trkpt lat="44.59241" lon="0.919">
        <ele>229.41</ele>
        <time>2012-12-02T08:37:17Z</time>
      </trkpt>
      <trkpt lat="44.59241" lon="0.91965">
        <ele>232.3</ele>
        <time>2012-12-02T08:37:35Z</time>
      </trkpt>
      <trkpt lat="44.59249" lon="0.92023">
        <ele>233.74</ele>
        <time>2012-12-02T08:37:52Z</time>
      </trkpt>
      <trkpt lat="44.59248" lon="0.92045">
        <ele>232.78</ele>
        <time>2012-12-02T08:38:00Z</time>
      </trkpt>
      <trkpt lat="44.59248" lon="0.92068">
        <ele>232.3</ele>
        <time>2012-12-02T08:38:09Z</time>
      </trkpt>
      <trkpt lat="44.59249" lon="0.92073">
        <ele>231.81</ele>
        <time>2012-12-02T08:38:11Z</time>
      </trkpt>
      <trkpt lat="44.5925" lon="0.92077">
        <ele>231.81</ele>
        <time>2012-12-02T08:38:14Z</time>
      </trkpt>
      <trkpt lat="44.59252" lon="0.92081">
        <ele>233.26</ele>
        <time>2012-12-02T08:38:30Z</time>
      </trkpt>
      <trkpt lat="44.59253" lon="0.92081">
        <ele>234.22</ele>
        <time>2012-12-02T08:39:00Z</time>
      </trkpt>
      <trkpt lat="44.59253" lon="0.92082">
        <ele>236.62</ele>
        <time>2012-12-02T08:39:11Z</time>
      </trkpt>
      <trkpt lat="44.59254" lon="0.921">
        <ele>233.74</ele>
        <time>2012-12-02T08:39:22Z</time>
      </trkpt>
      <trkpt lat="44.59252" lon="0.92097">
        <ele>233.26</ele>
        <time>2012-12-02T08:39:51Z</time>
      </trkpt>
      <trkpt lat="44.59254" lon="0.92097">
        <ele>231.81</ele>
        <time>2012-12-02T08:40:15Z</time>
      </trkpt>
      <trkpt lat="44.59254" lon="0.92099">
        <ele>227.49</ele>
        <time>2012-12-02T08:40:45Z</time>
      </trkpt>
      <trkpt lat="44.59254" lon="0.92099">
        <ele>229.89</ele>
        <time>2012-12-02T08:41:09Z</time>
      </trkpt>
      <trkpt lat="44.59254" lon="0.92102">
        <ele>227.97</ele>
        <time>2012-12-02T08:41:35Z</time>
      </trkpt>
      <trkpt lat="44.59255" lon="0.92102">
        <ele>229.41</ele>
        <time>2012-12-02T08:41:55Z</time>
      </trkpt>
      <trkpt lat="44.59256" lon="0.92097">
        <ele>230.37</ele>
        <time>2012-12-02T08:42:21Z</time>
      </trkpt>
      <trkpt lat="44.59257" lon="0.92097">
        <ele>230.37</ele>
        <time>2012-12-02T08:42:48Z</time>
      </trkpt>
      <trkpt lat="44.59259" lon="0.92096">
        <ele>233.74</ele>
        <time>2012-12-02T08:43:37Z</time>
      </trkpt>
      <trkpt lat="44.59262" lon="0.92099">
        <ele>231.33</ele>
        <time>2012-12-02T08:44:16Z</time>
      </trkpt>
      <trkpt lat="44.59258" lon="0.92101">
        <ele>228.45</ele>
        <time>2012-12-02T08:44:54Z</time>
      </trkpt>
      <trkpt lat="44.59253" lon="0.921">
        <ele>228.93</ele>
        <time>2012-12-02T08:45:35Z</time>
      </trkpt>
      <trkpt lat="44.59256" lon="0.92097">
        <ele>228.45</ele>
        <time>2012-12-02T08:46:12Z</time>
      </trkpt>
      <trkpt lat="44.59254" lon="0.92099">
        <ele>230.37</ele>
        <time>2012-12-02T08:46:50Z</time>
      </trkpt>
      <trkpt lat="44.59257" lon="0.92099">
        <ele>228.93</ele>
        <time>2012-12-02T08:47:34Z</time>
      </trkpt>
      <trkpt lat="44.59254" lon="0.92097">
        <ele>227.49</ele>
        <time>2012-12-02T08:48:11Z</time>
      </trkpt>
      <trkpt lat="44.59257" lon="0.92098">
        <ele>230.85</ele>
        <time>2012-12-02T08:48:58Z</time>
      </trkpt>
      <trkpt lat="44.59256" lon="0.92096">
        <ele>231.33</ele>
        <time>2012-12-02T08:49:42Z</time>
      </trkpt>
      <trkpt lat="44.59256" lon="0.92098">
        <ele>230.85</ele>
        <time>2012-12-02T08:50:21Z</time>
      </trkpt>
      <trkpt lat="44.59256" lon="0.92099">
        <ele>231.33</ele>
        <time>2012-12-02T08:50:37Z</time>
      </trkpt>
      <trkpt lat="44.59255" lon="0.92098">
        <ele>231.81</ele>
        <time>2012-12-02T08:51:00Z</time>
      </trkpt>
      <trkpt lat="44.59257" lon="0.92102">
        <ele>231.33</ele>
        <time>2012-12-02T08:51:18Z</time>
      </trkpt>
      <trkpt lat="44.59255" lon="0.921">
        <ele>230.37</ele>
        <time>2012-12-02T08:51:33Z</time>
      </trkpt>
      <trkpt lat="44.5926" lon="0.9213">
        <ele>229.41</ele>
        <time>2012-12-02T08:51:42Z</time>
      </trkpt>
      <trkpt lat="44.59274" lon="0.92198">
        <ele>228.45</ele>
        <time>2012-12-02T08:51:53Z</time>
      </trkpt>
      <trkpt lat="44.59285" lon="0.92256">
        <ele>231.33</ele>
        <time>2012-12-02T08:52:06Z</time>
      </trkpt>
      <trkpt lat="44.59301" lon="0.92334">
        <ele>234.7</ele>
        <time>2012-12-02T08:52:24Z</time>
      </trkpt>
      <trkpt lat="44.59316" lon="0.92415">
        <ele>238.06</ele>
        <time>2012-12-02T08:52:42Z</time>
      </trkpt>
      <trkpt lat="44.59308" lon="0.92477">
        <ele>239.99</ele>
        <time>2012-12-02T08:52:55Z</time>
      </trkpt>
      <trkpt lat="44.59271" lon="0.92554">
        <ele>241.43</ele>
        <time>2012-12-02T08:53:13Z</time>
      </trkpt>
      <trkpt lat="44.59268" lon="0.92559">
        <ele>241.43</ele>
        <time>2012-12-02T08:53:14Z</time>
      </trkpt>
      <trkpt lat="44.59222" lon="0.92663">
        <ele>239.99</ele>
        <time>2012-12-02T08:53:33Z</time>
      </trkpt>
      <trkpt lat="44.5922" lon="0.92668">
        <ele>239.99</ele>
        <time>2012-12-02T08:53:34Z</time>
      </trkpt>
      <trkpt lat="44.59199" lon="0.92745">
        <ele>240.47</ele>
        <time>2012-12-02T08:53:49Z</time>
      </trkpt>
      <trkpt lat="44.59222" lon="0.92779">
        <ele>241.43</ele>
        <time>2012-12-02T08:53:58Z</time>
      </trkpt>
      <trkpt lat="44.59232" lon="0.92797">
        <ele>242.39</ele>
        <time>2012-12-02T08:54:02Z</time>
      </trkpt>
      <trkpt lat="44.5924" lon="0.92827">
        <ele>241.43</ele>
        <time>2012-12-02T08:54:08Z</time>
      </trkpt>
      <trkpt lat="44.59245" lon="0.92845">
        <ele>240.47</ele>
        <time>2012-12-02T08:54:12Z</time>
      </trkpt>
      <trkpt lat="44.59281" lon="0.92861">
        <ele>239.51</ele>
        <time>2012-12-02T08:54:20Z</time>
      </trkpt>
      <trkpt lat="44.59314" lon="0.92878">
        <ele>239.99</ele>
        <time>2012-12-02T08:54:29Z</time>
      </trkpt>
      <trkpt lat="44.59323" lon="0.92889">
        <ele>240.47</ele>
        <time>2012-12-02T08:54:32Z</time>
      </trkpt>
      <trkpt lat="44.59344" lon="0.92919">
        <ele>240.95</ele>
        <time>2012-12-02T08:54:39Z</time>
      </trkpt>
      <trkpt lat="44.59352" lon="0.92932">
        <ele>240.95</ele>
        <time>2012-12-02T08:54:42Z</time>
      </trkpt>
      <trkpt lat="44.59388" lon="0.92984">
        <ele>240.47</ele>
        <time>2012-12-02T08:54:54Z</time>
      </trkpt>
      <trkpt lat="44.59423" lon="0.9302">
        <ele>242.39</ele>
        <time>2012-12-02T08:55:05Z</time>
      </trkpt>
      <trkpt lat="44.59447" lon="0.93043">
        <ele>241.43</ele>
        <time>2012-12-02T08:55:10Z</time>
      </trkpt>
      <trkpt lat="44.59515" lon="0.93089">
        <ele>239.51</ele>
        <time>2012-12-02T08:55:21Z</time>
      </trkpt>
      <trkpt lat="44.59529" lon="0.93097">
        <ele>238.54</ele>
        <time>2012-12-02T08:55:25Z</time>
      </trkpt>
      <trkpt lat="44.5957" lon="0.93112">
        <ele>237.1</ele>
        <time>2012-12-02T08:55:38Z</time>
      </trkpt>
      <trkpt lat="44.59573" lon="0.93113">
        <ele>234.22</ele>
        <time>2012-12-02T08:55:56Z</time>
      </trkpt>
      <trkpt lat="44.59579" lon="0.93119">
        <ele>235.18</ele>
        <time>2012-12-02T08:56:01Z</time>
      </trkpt>
      <trkpt lat="44.59604" lon="0.93146">
        <ele>239.02</ele>
        <time>2012-12-02T08:56:16Z</time>
      </trkpt>
      <trkpt lat="44.59628" lon="0.93174">
        <ele>240.95</ele>
        <time>2012-12-02T08:56:28Z</time>
      </trkpt>
      <trkpt lat="44.59651" lon="0.932">
        <ele>241.43</ele>
        <time>2012-12-02T08:56:40Z</time>
      </trkpt>
      <trkpt lat="44.59676" lon="0.93241">
        <ele>240.95</ele>
        <time>2012-12-02T08:56:54Z</time>
      </trkpt>
      <trkpt lat="44.59694" lon="0.93289">
        <ele>242.87</ele>
        <time>2012-12-02T08:57:09Z</time>
      </trkpt>
      <trkpt lat="44.59716" lon="0.93346">
        <ele>243.35</ele>
        <time>2012-12-02T08:57:25Z</time>
      </trkpt>
      <trkpt lat="44.59718" lon="0.9335">
        <ele>243.35</ele>
        <time>2012-12-02T08:57:26Z</time>
      </trkpt>
      <trkpt lat="44.59724" lon="0.93363">
        <ele>242.87</ele>
        <time>2012-12-02T08:57:31Z</time>
      </trkpt>
      <trkpt lat="44.59754" lon="0.93423">
        <ele>242.39</ele>
        <time>2012-12-02T08:57:47Z</time>
      </trkpt>
      <trkpt lat="44.59803" lon="0.93451">
        <ele>243.35</ele>
        <time>2012-12-02T08:58:01Z</time>
      </trkpt>
      <trkpt lat="44.59843" lon="0.93488">
        <ele>246.72</ele>
        <time>2012-12-02T08:58:15Z</time>
      </trkpt>
      <trkpt lat="44.5988" lon="0.93524">
        <ele>250.08</ele>
        <time>2012-12-02T08:58:29Z</time>
      </trkpt>
      <trkpt lat="44.5993" lon="0.93544">
        <ele>251.52</ele>
        <time>2012-12-02T08:58:43Z</time>
      </trkpt>
      <trkpt lat="44.5998" lon="0.93545">
        <ele>252.96</ele>
        <time>2012-12-02T08:58:57Z</time>
      </trkpt>
      <trkpt lat="44.60022" lon="0.93571">
        <ele>256.33</ele>
        <time>2012-12-02T08:59:12Z</time>
      </trkpt>
      <trkpt lat="44.60068" lon="0.93598">
        <ele>257.29</ele>
        <time>2012-12-02T08:59:26Z</time>
      </trkpt>
      <trkpt lat="44.60123" lon="0.93626">
        <ele>258.25</ele>
        <time>2012-12-02T08:59:41Z</time>
      </trkpt>
      <trkpt lat="44.60173" lon="0.93642">
        <ele>259.21</ele>
        <time>2012-12-02T08:59:54Z</time>
      </trkpt>
      <trkpt lat="44.60202" lon="0.93651">
        <ele>261.14</ele>
        <time>2012-12-02T09:00:02Z</time>
      </trkpt>
      <trkpt lat="44.60214" lon="0.93641">
        <ele>262.58</ele>
        <time>2012-12-02T09:00:08Z</time>
      </trkpt>
      <trkpt lat="44.60241" lon="0.93607">
        <ele>265.94</ele>
        <time>2012-12-02T09:00:22Z</time>
      </trkpt>
      <trkpt lat="44.60269" lon="0.93567">
        <ele>269.31</ele>
        <time>2012-12-02T09:00:35Z</time>
      </trkpt>
      <trkpt lat="44.60286" lon="0.93542">
        <ele>270.27</ele>
        <time>2012-12-02T09:00:41Z</time>
      </trkpt>
      <trkpt lat="44.60298" lon="0.93472">
        <ele>264.5</ele>
        <time>2012-12-02T09:00:53Z</time>
      </trkpt>
      <trkpt lat="44.60311" lon="0.93417">
        <ele>262.1</ele>
        <time>2012-12-02T09:01:04Z</time>
      </trkpt>
      <trkpt lat="44.60322" lon="0.9338">
        <ele>259.69</ele>
        <time>2012-12-02T09:01:16Z</time>
      </trkpt>
      <trkpt lat="44.60327" lon="0.93354">
        <ele>258.73</ele>
        <time>2012-12-02T09:01:21Z</time>
      </trkpt>
      <trkpt lat="44.60336" lon="0.93317">
        <ele>257.77</ele>
        <time>2012-12-02T09:01:27Z</time>
      </trkpt>
      <trkpt lat="44.60342" lon="0.93291">
        <ele>256.81</ele>
        <time>2012-12-02T09:01:31Z</time>
      </trkpt>
      <trkpt lat="44.60344" lon="0.93231">
        <ele>255.85</ele>
        <time>2012-12-02T09:01:42Z</time>
      </trkpt>
      <trkpt lat="44.60324" lon="0.93171">
        <ele>256.81</ele>
        <time>2012-12-02T09:01:54Z</time>
      </trkpt>
      <trkpt lat="44.60314" lon="0.93146">
        <ele>256.81</ele>
        <time>2012-12-02T09:01:58Z</time>
      </trkpt>
      <trkpt lat="44.60302" lon="0.9313">
        <ele>256.81</ele>
        <time>2012-12-02T09:02:02Z</time>
      </trkpt>
      <trkpt lat="44.60283" lon="0.93097">
        <ele>255.85</ele>
        <time>2012-12-02T09:02:09Z</time>
      </trkpt>
      <trkpt lat="44.60284" lon="0.93047">
        <ele>253.93</ele>
        <time>2012-12-02T09:02:19Z</time>
      </trkpt>
      <trkpt lat="44.60291" lon="0.93002">
        <ele>253.44</ele>
        <time>2012-12-02T09:02:28Z</time>
      </trkpt>
      <trkpt lat="44.60291" lon="0.92996">
        <ele>253.44</ele>
        <time>2012-12-02T09:02:29Z</time>
      </trkpt>
      <trkpt lat="44.6029" lon="0.92983">
        <ele>252.96</ele>
        <time>2012-12-02T09:02:31Z</time>
      </trkpt>
      <trkpt lat="44.60287" lon="0.92969">
        <ele>252.96</ele>
        <time>2012-12-02T09:02:33Z</time>
      </trkpt>
      <trkpt lat="44.60283" lon="0.92943">
        <ele>252.48</ele>
        <time>2012-12-02T09:02:36Z</time>
      </trkpt>
      <trkpt lat="44.60275" lon="0.92896">
        <ele>250.56</ele>
        <time>2012-12-02T09:02:42Z</time>
      </trkpt>
      <trkpt lat="44.60272" lon="0.92856">
        <ele>249.12</ele>
        <time>2012-12-02T09:02:48Z</time>
      </trkpt>
      <trkpt lat="44.6027" lon="0.92843">
        <ele>249.12</ele>
        <time>2012-12-02T09:02:50Z</time>
      </trkpt>
      <trkpt lat="44.60263" lon="0.9279">
        <ele>248.64</ele>
        <time>2012-12-02T09:03:01Z</time>
      </trkpt>
      <trkpt lat="44.60252" lon="0.92763">
        <ele>250.08</ele>
        <time>2012-12-02T09:03:11Z</time>
      </trkpt>
      <trkpt lat="44.60255" lon="0.9276">
        <ele>250.08</ele>
        <time>2012-12-02T09:03:12Z</time>
      </trkpt>
      <trkpt lat="44.60291" lon="0.92727">
        <ele>251.04</ele>
        <time>2012-12-02T09:03:24Z</time>
      </trkpt>
      <trkpt lat="44.60314" lon="0.92717">
        <ele>252</ele>
        <time>2012-12-02T09:03:30Z</time>
      </trkpt>
      <trkpt lat="44.60391" lon="0.92716">
        <ele>255.85</ele>
        <time>2012-12-02T09:03:47Z</time>
      </trkpt>
      <trkpt lat="44.60401" lon="0.92715">
        <ele>256.33</ele>
        <time>2012-12-02T09:03:49Z</time>
      </trkpt>
      <trkpt lat="44.6047" lon="0.92688">
        <ele>252.48</ele>
        <time>2012-12-02T09:04:00Z</time>
      </trkpt>
      <trkpt lat="44.60517" lon="0.92656">
        <ele>248.64</ele>
        <time>2012-12-02T09:04:10Z</time>
      </trkpt>
      <trkpt lat="44.60519" lon="0.92651">
        <ele>250.56</ele>
        <time>2012-12-02T09:04:23Z</time>
      </trkpt>
      <trkpt lat="44.60518" lon="0.92651">
        <ele>253.44</ele>
        <time>2012-12-02T09:04:43Z</time>
      </trkpt>
      <trkpt lat="44.60519" lon="0.92651">
        <ele>253.44</ele>
        <time>2012-12-02T09:04:51Z</time>
      </trkpt>
      <trkpt lat="44.60526" lon="0.92641">
        <ele>252</ele>
        <time>2012-12-02T09:04:56Z</time>
      </trkpt>
      <trkpt lat="44.60538" lon="0.92629">
        <ele>250.56</ele>
        <time>2012-12-02T09:05:00Z</time>
      </trkpt>
      <trkpt lat="44.60568" lon="0.92645">
        <ele>246.72</ele>
        <time>2012-12-02T09:05:07Z</time>
      </trkpt>
      <trkpt lat="44.60582" lon="0.92655">
        <ele>244.79</ele>
        <time>2012-12-02T09:05:10Z</time>
      </trkpt>
      <trkpt lat="44.60608" lon="0.92657">
        <ele>240.47</ele>
        <time>2012-12-02T09:05:16Z</time>
      </trkpt>
      <trkpt lat="44.60631" lon="0.92662">
        <ele>238.54</ele>
        <time>2012-12-02T09:05:20Z</time>
      </trkpt>
      <trkpt lat="44.60648" lon="0.92673">
        <ele>237.1</ele>
        <time>2012-12-02T09:05:23Z</time>
      </trkpt>
      <trkpt lat="44.60674" lon="0.92684">
        <ele>234.7</ele>
        <time>2012-12-02T09:05:28Z</time>
      </trkpt>
      <trkpt lat="44.60695" lon="0.92689">
        <ele>234.22</ele>
        <time>2012-12-02T09:05:32Z</time>
      </trkpt>
      <trkpt lat="44.60742" lon="0.92706">
        <ele>233.26</ele>
        <time>2012-12-02T09:05:42Z</time>
      </trkpt>
      <trkpt lat="44.60745" lon="0.92706">
        <ele>232.78</ele>
        <time>2012-12-02T09:05:45Z</time>
      </trkpt>
      <trkpt lat="44.60755" lon="0.92691">
        <ele>232.3</ele>
        <time>2012-12-02T09:05:50Z</time>
      </trkpt>
      <trkpt lat="44.60774" lon="0.92665">
        <ele>230.85</ele>
        <time>2012-12-02T09:05:55Z</time>
      </trkpt>
      <trkpt lat="44.60799" lon="0.92627">
        <ele>227.01</ele>
        <time>2012-12-02T09:06:01Z</time>
      </trkpt>
      <trkpt lat="44.60845" lon="0.92581">
        <ele>220.76</ele>
        <time>2012-12-02T09:06:09Z</time>
      </trkpt>
      <trkpt lat="44.60882" lon="0.92541">
        <ele>214.51</ele>
        <time>2012-12-02T09:06:16Z</time>
      </trkpt>
      <trkpt lat="44.60926" lon="0.92506">
        <ele>209.22</ele>
        <time>2012-12-02T09:06:24Z</time>
      </trkpt>
      <trkpt lat="44.60948" lon="0.9249">
        <ele>206.82</ele>
        <time>2012-12-02T09:06:28Z</time>
      </trkpt>
      <trkpt lat="44.60992" lon="0.92444">
        <ele>202.98</ele>
        <time>2012-12-02T09:06:36Z</time>
      </trkpt>
      <trkpt lat="44.61039" lon="0.92393">
        <ele>197.69</ele>
        <time>2012-12-02T09:06:44Z</time>
      </trkpt>
      <trkpt lat="44.61082" lon="0.92373">
        <ele>189.52</ele>
        <time>2012-12-02T09:06:52Z</time>
      </trkpt>
      <trkpt lat="44.61152" lon="0.92407">
        <ele>183.27</ele>
        <time>2012-12-02T09:07:05Z</time>
      </trkpt>
      <trkpt lat="44.61156" lon="0.92411">
        <ele>183.27</ele>
        <time>2012-12-02T09:07:06Z</time>
      </trkpt>
      <trkpt lat="44.61175" lon="0.92409">
        <ele>181.35</ele>
        <time>2012-12-02T09:07:10Z</time>
      </trkpt>
      <trkpt lat="44.61226" lon="0.92378">
        <ele>181.83</ele>
        <time>2012-12-02T09:07:22Z</time>
      </trkpt>
      <trkpt lat="44.6123" lon="0.92376">
        <ele>182.79</ele>
        <time>2012-12-02T09:07:24Z</time>
      </trkpt>
      <trkpt lat="44.61227" lon="0.92353">
        <ele>185.19</ele>
        <time>2012-12-02T09:07:32Z</time>
      </trkpt>
      <trkpt lat="44.61206" lon="0.92292">
        <ele>187.59</ele>
        <time>2012-12-02T09:07:47Z</time>
      </trkpt>
      <trkpt lat="44.61177" lon="0.92219">
        <ele>190</ele>
        <time>2012-12-02T09:08:02Z</time>
      </trkpt>
      <trkpt lat="44.61173" lon="0.92202">
        <ele>190</ele>
        <time>2012-12-02T09:08:05Z</time>
      </trkpt>
      <trkpt lat="44.61175" lon="0.92171">
        <ele>189.52</ele>
        <time>2012-12-02T09:08:10Z</time>
      </trkpt>
      <trkpt lat="44.61182" lon="0.92141">
        <ele>188.08</ele>
        <time>2012-12-02T09:08:15Z</time>
      </trkpt>
      <trkpt lat="44.61225" lon="0.92069">
        <ele>186.15</ele>
        <time>2012-12-02T09:08:30Z</time>
      </trkpt>
      <trkpt lat="44.6128" lon="0.91956">
        <ele>184.71</ele>
        <time>2012-12-02T09:08:49Z</time>
      </trkpt>
      <trkpt lat="44.61293" lon="0.91919">
        <ele>184.71</ele>
        <time>2012-12-02T09:08:55Z</time>
      </trkpt>
      <trkpt lat="44.6129" lon="0.91823">
        <ele>185.67</ele>
        <time>2012-12-02T09:09:09Z</time>
      </trkpt>
      <trkpt lat="44.61285" lon="0.91768">
        <ele>185.19</ele>
        <time>2012-12-02T09:09:21Z</time>
      </trkpt>
      <trkpt lat="44.61285" lon="0.9177">
        <ele>184.23</ele>
        <time>2012-12-02T09:09:44Z</time>
      </trkpt>
      <trkpt lat="44.61284" lon="0.91731">
        <ele>183.75</ele>
        <time>2012-12-02T09:09:56Z</time>
      </trkpt>
      <trkpt lat="44.61279" lon="0.91634">
        <ele>181.83</ele>
        <time>2012-12-02T09:10:14Z</time>
      </trkpt>
      <trkpt lat="44.61252" lon="0.9154">
        <ele>180.38</ele>
        <time>2012-12-02T09:10:31Z</time>
      </trkpt>
      <trkpt lat="44.612" lon="0.91435">
        <ele>178.46</ele>
        <time>2012-12-02T09:10:50Z</time>
      </trkpt>
      <trkpt lat="44.6115" lon="0.91343">
        <ele>177.5</ele>
        <time>2012-12-02T09:11:06Z</time>
      </trkpt>
      <trkpt lat="44.61087" lon="0.91248">
        <ele>178.46</ele>
        <time>2012-12-02T09:11:24Z</time>
      </trkpt>
      <trkpt lat="44.61075" lon="0.91219">
        <ele>178.46</ele>
        <time>2012-12-02T09:11:29Z</time>
      </trkpt>
      <trkpt lat="44.6108" lon="0.91202">
        <ele>178.46</ele>
        <time>2012-12-02T09:11:33Z</time>
      </trkpt>
      <trkpt lat="44.61107" lon="0.91151">
        <ele>178.46</ele>
        <time>2012-12-02T09:11:46Z</time>
      </trkpt>
      <trkpt lat="44.61148" lon="0.91124">
        <ele>177.02</ele>
        <time>2012-12-02T09:12:01Z</time>
      </trkpt>
      <trkpt lat="44.61182" lon="0.91124">
        <ele>178.46</ele>
        <time>2012-12-02T09:12:13Z</time>
      </trkpt>
      <trkpt lat="44.61225" lon="0.91122">
        <ele>177.5</ele>
        <time>2012-12-02T09:12:26Z</time>
      </trkpt>
      <trkpt lat="44.61279" lon="0.91115">
        <ele>177.98</ele>
        <time>2012-12-02T09:12:41Z</time>
      </trkpt>
      <trkpt lat="44.61326" lon="0.91126">
        <ele>180.87</ele>
        <time>2012-12-02T09:12:55Z</time>
      </trkpt>
      <trkpt lat="44.61373" lon="0.91119">
        <ele>185.67</ele>
        <time>2012-12-02T09:13:09Z</time>
      </trkpt>
      <trkpt lat="44.61404" lon="0.9111">
        <ele>185.67</ele>
        <time>2012-12-02T09:13:20Z</time>
      </trkpt>
      <trkpt lat="44.61415" lon="0.91109">
        <ele>184.71</ele>
        <time>2012-12-02T09:13:31Z</time>
      </trkpt>
      <trkpt lat="44.61416" lon="0.9111">
        <ele>179.9</ele>
        <time>2012-12-02T09:14:04Z</time>
      </trkpt>
      <trkpt lat="44.61417" lon="0.91108">
        <ele>179.9</ele>
        <time>2012-12-02T09:14:15Z</time>
      </trkpt>
      <trkpt lat="44.61422" lon="0.91101">
        <ele>182.31</ele>
        <time>2012-12-02T09:14:20Z</time>
      </trkpt>
      <trkpt lat="44.61422" lon="0.91047">
        <ele>190</ele>
        <time>2012-12-02T09:14:37Z</time>
      </trkpt>
      <trkpt lat="44.61419" lon="0.90985">
        <ele>193.36</ele>
        <time>2012-12-02T09:14:52Z</time>
      </trkpt>
      <trkpt lat="44.61417" lon="0.90923">
        <ele>194.8</ele>
        <time>2012-12-02T09:15:07Z</time>
      </trkpt>
      <trkpt lat="44.61417" lon="0.90864">
        <ele>197.69</ele>
        <time>2012-12-02T09:15:21Z</time>
      </trkpt>
      <trkpt lat="44.61418" lon="0.90821">
        <ele>201.05</ele>
        <time>2012-12-02T09:15:32Z</time>
      </trkpt>
      <trkpt lat="44.61425" lon="0.90761">
        <ele>205.86</ele>
        <time>2012-12-02T09:15:48Z</time>
      </trkpt>
      <trkpt lat="44.61417" lon="0.90694">
        <ele>207.78</ele>
        <time>2012-12-02T09:16:04Z</time>
      </trkpt>
      <trkpt lat="44.61404" lon="0.90645">
        <ele>209.7</ele>
        <time>2012-12-02T09:16:18Z</time>
      </trkpt>
      <trkpt lat="44.61391" lon="0.906">
        <ele>217.88</ele>
        <time>2012-12-02T09:16:35Z</time>
      </trkpt>
      <trkpt lat="44.61379" lon="0.90565">
        <ele>224.12</ele>
        <time>2012-12-02T09:16:49Z</time>
      </trkpt>
      <trkpt lat="44.61382" lon="0.90526">
        <ele>224.61</ele>
        <time>2012-12-02T09:17:03Z</time>
      </trkpt>
      <trkpt lat="44.6139" lon="0.90466">
        <ele>224.12</ele>
        <time>2012-12-02T09:17:19Z</time>
      </trkpt>
      <trkpt lat="44.61395" lon="0.90418">
        <ele>222.2</ele>
        <time>2012-12-02T09:17:27Z</time>
      </trkpt>
      <trkpt lat="44.61398" lon="0.90406">
        <ele>221.72</ele>
        <time>2012-12-02T09:17:29Z</time>
      </trkpt>
      <trkpt lat="44.6143" lon="0.9037">
        <ele>220.76</ele>
        <time>2012-12-02T09:17:41Z</time>
      </trkpt>
      <trkpt lat="44.61477" lon="0.90335">
        <ele>220.76</ele>
        <time>2012-12-02T09:17:57Z</time>
      </trkpt>
      <trkpt lat="44.61522" lon="0.90332">
        <ele>222.2</ele>
        <time>2012-12-02T09:18:11Z</time>
      </trkpt>
      <trkpt lat="44.61544" lon="0.90326">
        <ele>223.16</ele>
        <time>2012-12-02T09:18:18Z</time>
      </trkpt>
      <trkpt lat="44.61541" lon="0.90299">
        <ele>221.24</ele>
        <time>2012-12-02T09:18:24Z</time>
      </trkpt>
      <trkpt lat="44.61496" lon="0.90197">
        <ele>216.43</ele>
        <time>2012-12-02T09:18:39Z</time>
      </trkpt>
      <trkpt lat="44.61443" lon="0.90125">
        <ele>215.47</ele>
        <time>2012-12-02T09:18:54Z</time>
      </trkpt>
      <trkpt lat="44.61427" lon="0.90107">
        <ele>214.99</ele>
        <time>2012-12-02T09:18:58Z</time>
      </trkpt>
      <trkpt lat="44.61415" lon="0.9009">
        <ele>214.51</ele>
        <time>2012-12-02T09:19:02Z</time>
      </trkpt>
      <trkpt lat="44.61414" lon="0.9008">
        <ele>214.03</ele>
        <time>2012-12-02T09:19:06Z</time>
      </trkpt>
      <trkpt lat="44.6142" lon="0.90075">
        <ele>214.51</ele>
        <time>2012-12-02T09:19:10Z</time>
      </trkpt>
      <trkpt lat="44.61453" lon="0.90078">
        <ele>215.47</ele>
        <time>2012-12-02T09:19:21Z</time>
      </trkpt>
      <trkpt lat="44.61481" lon="0.90076">
        <ele>214.99</ele>
        <time>2012-12-02T09:19:29Z</time>
      </trkpt>
      <trkpt lat="44.61556" lon="0.90064">
        <ele>213.07</ele>
        <time>2012-12-02T09:19:43Z</time>
      </trkpt>
      <trkpt lat="44.61641" lon="0.90054">
        <ele>208.26</ele>
        <time>2012-12-02T09:19:57Z</time>
      </trkpt>
      <trkpt lat="44.61728" lon="0.90034">
        <ele>202.98</ele>
        <time>2012-12-02T09:20:13Z</time>
      </trkpt>
      <trkpt lat="44.61732" lon="0.90033">
        <ele>202.98</ele>
        <time>2012-12-02T09:20:14Z</time>
      </trkpt>
      <trkpt lat="44.61732" lon="0.90013">
        <ele>203.46</ele>
        <time>2012-12-02T09:20:19Z</time>
      </trkpt>
      <trkpt lat="44.61693" lon="0.89919">
        <ele>204.42</ele>
        <time>2012-12-02T09:20:34Z</time>
      </trkpt>
      <trkpt lat="44.6166" lon="0.89835">
        <ele>204.9</ele>
        <time>2012-12-02T09:20:48Z</time>
      </trkpt>
      <trkpt lat="44.61632" lon="0.8978">
        <ele>203.94</ele>
        <time>2012-12-02T09:20:59Z</time>
      </trkpt>
      <trkpt lat="44.61605" lon="0.89704">
        <ele>203.94</ele>
        <time>2012-12-02T09:21:13Z</time>
      </trkpt>
      <trkpt lat="44.61599" lon="0.89673">
        <ele>203.46</ele>
        <time>2012-12-02T09:21:18Z</time>
      </trkpt>
      <trkpt lat="44.61595" lon="0.89645">
        <ele>202.98</ele>
        <time>2012-12-02T09:21:22Z</time>
      </trkpt>
      <trkpt lat="44.61602" lon="0.89557">
        <ele>200.09</ele>
        <time>2012-12-02T09:21:35Z</time>
      </trkpt>
      <trkpt lat="44.61606" lon="0.89538">
        <ele>199.13</ele>
        <time>2012-12-02T09:21:38Z</time>
      </trkpt>
      <trkpt lat="44.61613" lon="0.89509">
        <ele>198.17</ele>
        <time>2012-12-02T09:21:43Z</time>
      </trkpt>
      <trkpt lat="44.61617" lon="0.89476">
        <ele>198.17</ele>
        <time>2012-12-02T09:21:48Z</time>
      </trkpt>
      <trkpt lat="44.6161" lon="0.89364">
        <ele>197.21</ele>
        <time>2012-12-02T09:22:05Z</time>
      </trkpt>
      <trkpt lat="44.61596" lon="0.89324">
        <ele>196.73</ele>
        <time>2012-12-02T09:22:12Z</time>
      </trkpt>
      <trkpt lat="44.61592" lon="0.89313">
        <ele>196.73</ele>
        <time>2012-12-02T09:22:14Z</time>
      </trkpt>
      <trkpt lat="44.61574" lon="0.89257">
        <ele>197.21</ele>
        <time>2012-12-02T09:22:24Z</time>
      </trkpt>
      <trkpt lat="44.61569" lon="0.89234">
        <ele>197.21</ele>
        <time>2012-12-02T09:22:28Z</time>
      </trkpt>
      <trkpt lat="44.61553" lon="0.89137">
        <ele>195.28</ele>
        <time>2012-12-02T09:22:45Z</time>
      </trkpt>
      <trkpt lat="44.61546" lon="0.89098">
        <ele>195.28</ele>
        <time>2012-12-02T09:22:55Z</time>
      </trkpt>
      <trkpt lat="44.61546" lon="0.89095">
        <ele>194.8</ele>
        <time>2012-12-02T09:22:56Z</time>
      </trkpt>
      <trkpt lat="44.61544" lon="0.89098">
        <ele>193.84</ele>
        <time>2012-12-02T09:23:02Z</time>
      </trkpt>
      <trkpt lat="44.61548" lon="0.89109">
        <ele>192.4</ele>
        <time>2012-12-02T09:23:08Z</time>
      </trkpt>
      <trkpt lat="44.61564" lon="0.89108">
        <ele>192.4</ele>
        <time>2012-12-02T09:23:17Z</time>
      </trkpt>
      <trkpt lat="44.61585" lon="0.89095">
        <ele>196.25</ele>
        <time>2012-12-02T09:23:31Z</time>
      </trkpt>
      <trkpt lat="44.6161" lon="0.89091">
        <ele>200.09</ele>
        <time>2012-12-02T09:23:43Z</time>
      </trkpt>
      <trkpt lat="44.61637" lon="0.89091">
        <ele>208.26</ele>
        <time>2012-12-02T09:23:57Z</time>
      </trkpt>
      <trkpt lat="44.61658" lon="0.89093">
        <ele>213.55</ele>
        <time>2012-12-02T09:24:07Z</time>
      </trkpt>
      <trkpt lat="44.61659" lon="0.89093">
        <ele>214.03</ele>
        <time>2012-12-02T09:24:08Z</time>
      </trkpt>
      <trkpt lat="44.61664" lon="0.89098">
        <ele>213.55</ele>
        <time>2012-12-02T09:24:21Z</time>
      </trkpt>
      <trkpt lat="44.61665" lon="0.89097">
        <ele>212.11</ele>
        <time>2012-12-02T09:24:37Z</time>
      </trkpt>
      <trkpt lat="44.61665" lon="0.89095">
        <ele>212.11</ele>
        <time>2012-12-02T09:24:43Z</time>
      </trkpt>
      <trkpt lat="44.61666" lon="0.89091">
        <ele>212.11</ele>
        <time>2012-12-02T09:24:52Z</time>
      </trkpt>
      <trkpt lat="44.6167" lon="0.89079">
        <ele>211.15</ele>
        <time>2012-12-02T09:24:58Z</time>
      </trkpt>
      <trkpt lat="44.61674" lon="0.8906">
        <ele>210.19</ele>
        <time>2012-12-02T09:25:04Z</time>
      </trkpt>
      <trkpt lat="44.61679" lon="0.89018">
        <ele>207.3</ele>
        <time>2012-12-02T09:25:10Z</time>
      </trkpt>
      <trkpt lat="44.61681" lon="0.88963">
        <ele>204.42</ele>
        <time>2012-12-02T09:25:18Z</time>
      </trkpt>
      <trkpt lat="44.61694" lon="0.88943">
        <ele>203.94</ele>
        <time>2012-12-02T09:25:26Z</time>
      </trkpt>
      <trkpt lat="44.61713" lon="0.88917">
        <ele>201.53</ele>
        <time>2012-12-02T09:25:34Z</time>
      </trkpt>
      <trkpt lat="44.6172" lon="0.8892">
        <ele>201.05</ele>
        <time>2012-12-02T09:25:38Z</time>
      </trkpt>
      <trkpt lat="44.6175" lon="0.88955">
        <ele>201.05</ele>
        <time>2012-12-02T09:25:52Z</time>
      </trkpt>
      <trkpt lat="44.61783" lon="0.88997">
        <ele>202.01</ele>
        <time>2012-12-02T09:26:06Z</time>
      </trkpt>
      <trkpt lat="44.61813" lon="0.89032">
        <ele>202.49</ele>
        <time>2012-12-02T09:26:20Z</time>
      </trkpt>
      <trkpt lat="44.6182" lon="0.89036">
        <ele>202.98</ele>
        <time>2012-12-02T09:26:30Z</time>
      </trkpt>
      <trkpt lat="44.61819" lon="0.89036">
        <ele>202.98</ele>
        <time>2012-12-02T09:26:31Z</time>
      </trkpt>
      <trkpt lat="44.61837" lon="0.8902">
        <ele>204.9</ele>
        <time>2012-12-02T09:26:41Z</time>
      </trkpt>
      <trkpt lat="44.61854" lon="0.8904">
        <ele>205.86</ele>
        <time>2012-12-02T09:26:51Z</time>
      </trkpt>
      <trkpt lat="44.61873" lon="0.89081">
        <ele>207.78</ele>
        <time>2012-12-02T09:27:04Z</time>
      </trkpt>
      <trkpt lat="44.61898" lon="0.8906">
        <ele>209.22</ele>
        <time>2012-12-02T09:27:16Z</time>
      </trkpt>
      <trkpt lat="44.61936" lon="0.89023">
        <ele>214.03</ele>
        <time>2012-12-02T09:27:33Z</time>
      </trkpt>
      <trkpt lat="44.61969" lon="0.8899">
        <ele>218.84</ele>
        <time>2012-12-02T09:27:48Z</time>
      </trkpt>
      <trkpt lat="44.61969" lon="0.88984">
        <ele>218.84</ele>
        <time>2012-12-02T09:27:52Z</time>
      </trkpt>
      <trkpt lat="44.61967" lon="0.88977">
        <ele>219.8</ele>
        <time>2012-12-02T09:28:04Z</time>
      </trkpt>
      <trkpt lat="44.61962" lon="0.88964">
        <ele>221.72</ele>
        <time>2012-12-02T09:28:18Z</time>
      </trkpt>
      <trkpt lat="44.6197" lon="0.88921">
        <ele>221.72</ele>
        <time>2012-12-02T09:28:30Z</time>
      </trkpt>
      <trkpt lat="44.61997" lon="0.88875">
        <ele>220.28</ele>
        <time>2012-12-02T09:28:44Z</time>
      </trkpt>
      <trkpt lat="44.6202" lon="0.88863">
        <ele>218.36</ele>
        <time>2012-12-02T09:28:51Z</time>
      </trkpt>
      <trkpt lat="44.62039" lon="0.88851">
        <ele>216.43</ele>
        <time>2012-12-02T09:28:56Z</time>
      </trkpt>
      <trkpt lat="44.62051" lon="0.88832">
        <ele>214.99</ele>
        <time>2012-12-02T09:29:00Z</time>
      </trkpt>
      <trkpt lat="44.62074" lon="0.88823">
        <ele>210.67</ele>
        <time>2012-12-02T09:29:06Z</time>
      </trkpt>
      <trkpt lat="44.62091" lon="0.88811">
        <ele>208.26</ele>
        <time>2012-12-02T09:29:10Z</time>
      </trkpt>
      <trkpt lat="44.62112" lon="0.88786">
        <ele>205.86</ele>
        <time>2012-12-02T09:29:15Z</time>
      </trkpt>
      <trkpt lat="44.62121" lon="0.88776">
        <ele>204.9</ele>
        <time>2012-12-02T09:29:17Z</time>
      </trkpt>
      <trkpt lat="44.6216" lon="0.88762">
        <ele>200.57</ele>
        <time>2012-12-02T09:29:24Z</time>
      </trkpt>
      <trkpt lat="44.62195" lon="0.88765">
        <ele>195.28</ele>
        <time>2012-12-02T09:29:31Z</time>
      </trkpt>
      <trkpt lat="44.62204" lon="0.88727">
        <ele>191.44</ele>
        <time>2012-12-02T09:29:39Z</time>
      </trkpt>
      <trkpt lat="44.62201" lon="0.88694">
        <ele>190.96</ele>
        <time>2012-12-02T09:29:48Z</time>
      </trkpt>
      <trkpt lat="44.622" lon="0.8868">
        <ele>190.96</ele>
        <time>2012-12-02T09:29:51Z</time>
      </trkpt>
      <trkpt lat="44.62199" lon="0.8866">
        <ele>189.52</ele>
        <time>2012-12-02T09:29:54Z</time>
      </trkpt>
      <trkpt lat="44.62198" lon="0.88626">
        <ele>187.59</ele>
        <time>2012-12-02T09:29:59Z</time>
      </trkpt>
      <trkpt lat="44.62197" lon="0.8861">
        <ele>186.15</ele>
        <time>2012-12-02T09:30:01Z</time>
      </trkpt>
      <trkpt lat="44.62201" lon="0.88578">
        <ele>182.79</ele>
        <time>2012-12-02T09:30:05Z</time>
      </trkpt>
      <trkpt lat="44.62196" lon="0.88517">
        <ele>174.14</ele>
        <time>2012-12-02T09:30:13Z</time>
      </trkpt>
      <trkpt lat="44.62192" lon="0.88513">
        <ele>173.17</ele>
        <time>2012-12-02T09:30:14Z</time>
      </trkpt>
      <trkpt lat="44.62177" lon="0.88503">
        <ele>171.25</ele>
        <time>2012-12-02T09:30:17Z</time>
      </trkpt>
      <trkpt lat="44.62159" lon="0.88494">
        <ele>169.81</ele>
        <time>2012-12-02T09:30:21Z</time>
      </trkpt>
      <trkpt lat="44.62159" lon="0.88481">
        <ele>168.37</ele>
        <time>2012-12-02T09:30:25Z</time>
      </trkpt>
      <trkpt lat="44.62175" lon="0.88425">
        <ele>167.89</ele>
        <time>2012-12-02T09:30:41Z</time>
      </trkpt>
      <trkpt lat="44.62188" lon="0.88395">
        <ele>168.85</ele>
        <time>2012-12-02T09:30:53Z</time>
      </trkpt>
      <trkpt lat="44.62187" lon="0.88394">
        <ele>169.81</ele>
        <time>2012-12-02T09:31:07Z</time>
      </trkpt>
      <trkpt lat="44.62211" lon="0.88383">
        <ele>168.85</ele>
        <time>2012-12-02T09:31:18Z</time>
      </trkpt>
      <trkpt lat="44.62231" lon="0.88351">
        <ele>167.89</ele>
        <time>2012-12-02T09:31:30Z</time>
      </trkpt>
      <trkpt lat="44.62243" lon="0.88317">
        <ele>165.48</ele>
        <time>2012-12-02T09:31:40Z</time>
      </trkpt>
      <trkpt lat="44.62283" lon="0.88296">
        <ele>162.6</ele>
        <time>2012-12-02T09:31:53Z</time>
      </trkpt>
      <trkpt lat="44.6233" lon="0.88295">
        <ele>163.56</ele>
        <time>2012-12-02T09:32:08Z</time>
      </trkpt>
      <trkpt lat="44.62357" lon="0.88268">
        <ele>164.52</ele>
        <time>2012-12-02T09:32:20Z</time>
      </trkpt>
      <trkpt lat="44.62384" lon="0.88221">
        <ele>167.89</ele>
        <time>2012-12-02T09:32:36Z</time>
      </trkpt>
      <trkpt lat="44.62399" lon="0.88196">
        <ele>169.81</ele>
        <time>2012-12-02T09:32:45Z</time>
      </trkpt>
      <trkpt lat="44.62405" lon="0.88202">
        <ele>170.77</ele>
        <time>2012-12-02T09:32:49Z</time>
      </trkpt>
      <trkpt lat="44.62426" lon="0.88237">
        <ele>170.29</ele>
        <time>2012-12-02T09:33:01Z</time>
      </trkpt>
      <trkpt lat="44.62458" lon="0.88235">
        <ele>170.77</ele>
        <time>2012-12-02T09:33:15Z</time>
      </trkpt>
      <trkpt lat="44.62479" lon="0.88202">
        <ele>176.06</ele>
        <time>2012-12-02T09:33:29Z</time>
      </trkpt>
      <trkpt lat="44.62503" lon="0.88208">
        <ele>178.94</ele>
        <time>2012-12-02T09:33:41Z</time>
      </trkpt>
      <trkpt lat="44.62512" lon="0.88211">
        <ele>182.31</ele>
        <time>2012-12-02T09:33:53Z</time>
      </trkpt>
      <trkpt lat="44.62516" lon="0.88217">
        <ele>183.27</ele>
        <time>2012-12-02T09:34:02Z</time>
      </trkpt>
      <trkpt lat="44.6253" lon="0.88225">
        <ele>184.23</ele>
        <time>2012-12-02T09:34:10Z</time>
      </trkpt>
      <trkpt lat="44.62555" lon="0.88219">
        <ele>185.67</ele>
        <time>2012-12-02T09:34:21Z</time>
      </trkpt>
      <trkpt lat="44.62577" lon="0.88207">
        <ele>186.63</ele>
        <time>2012-12-02T09:34:31Z</time>
      </trkpt>
      <trkpt lat="44.62593" lon="0.88197">
        <ele>186.63</ele>
        <time>2012-12-02T09:34:39Z</time>
      </trkpt>
      <trkpt lat="44.6261" lon="0.88189">
        <ele>188.56</ele>
        <time>2012-12-02T09:34:48Z</time>
      </trkpt>
      <trkpt lat="44.6264" lon="0.88163">
        <ele>192.88</ele>
        <time>2012-12-02T09:35:03Z</time>
      </trkpt>
      <trkpt lat="44.62657" lon="0.88139">
        <ele>194.8</ele>
        <time>2012-12-02T09:35:14Z</time>
      </trkpt>
      <trkpt lat="44.62669" lon="0.88103">
        <ele>194.32</ele>
        <time>2012-12-02T09:35:25Z</time>
      </trkpt>
      <trkpt lat="44.62689" lon="0.88055">
        <ele>195.77</ele>
        <time>2012-12-02T09:35:39Z</time>
      </trkpt>
      <trkpt lat="44.62723" lon="0.88014">
        <ele>193.36</ele>
        <time>2012-12-02T09:35:51Z</time>
      </trkpt>
      <trkpt lat="44.62729" lon="0.88006">
        <ele>192.88</ele>
        <time>2012-12-02T09:35:53Z</time>
      </trkpt>
      <trkpt lat="44.62748" lon="0.87983">
        <ele>190.96</ele>
        <time>2012-12-02T09:35:58Z</time>
      </trkpt>
      <trkpt lat="44.6276" lon="0.87969">
        <ele>190</ele>
        <time>2012-12-02T09:36:01Z</time>
      </trkpt>
      <trkpt lat="44.62781" lon="0.87942">
        <ele>189.04</ele>
        <time>2012-12-02T09:36:06Z</time>
      </trkpt>
      <trkpt lat="44.62796" lon="0.8792">
        <ele>190</ele>
        <time>2012-12-02T09:36:10Z</time>
      </trkpt>
      <trkpt lat="44.62821" lon="0.87882">
        <ele>194.8</ele>
        <time>2012-12-02T09:36:20Z</time>
      </trkpt>
      <trkpt lat="44.62837" lon="0.87881">
        <ele>197.21</ele>
        <time>2012-12-02T09:36:26Z</time>
      </trkpt>
      <trkpt lat="44.62872" lon="0.87906">
        <ele>200.09</ele>
        <time>2012-12-02T09:36:40Z</time>
      </trkpt>
      <trkpt lat="44.62881" lon="0.87901">
        <ele>200.09</ele>
        <time>2012-12-02T09:36:44Z</time>
      </trkpt>
      <trkpt lat="44.62925" lon="0.87871">
        <ele>198.65</ele>
        <time>2012-12-02T09:36:59Z</time>
      </trkpt>
      <trkpt lat="44.62953" lon="0.87836">
        <ele>198.65</ele>
        <time>2012-12-02T09:37:11Z</time>
      </trkpt>
      <trkpt lat="44.62974" lon="0.87749">
        <ele>198.65</ele>
        <time>2012-12-02T09:37:28Z</time>
      </trkpt>
      <trkpt lat="44.62979" lon="0.87682">
        <ele>200.57</ele>
        <time>2012-12-02T09:37:42Z</time>
      </trkpt>
      <trkpt lat="44.62987" lon="0.87677">
        <ele>200.57</ele>
        <time>2012-12-02T09:37:46Z</time>
      </trkpt>
      <trkpt lat="44.63028" lon="0.87704">
        <ele>203.46</ele>
        <time>2012-12-02T09:38:00Z</time>
      </trkpt>
      <trkpt lat="44.63065" lon="0.87726">
        <ele>204.9</ele>
        <time>2012-12-02T09:38:12Z</time>
      </trkpt>
      <trkpt lat="44.63093" lon="0.8774">
        <ele>208.26</ele>
        <time>2012-12-02T09:38:22Z</time>
      </trkpt>
      <trkpt lat="44.6312" lon="0.87756">
        <ele>207.78</ele>
        <time>2012-12-02T09:38:30Z</time>
      </trkpt>
      <trkpt lat="44.63158" lon="0.87778">
        <ele>206.34</ele>
        <time>2012-12-02T09:38:38Z</time>
      </trkpt>
      <trkpt lat="44.63205" lon="0.87803">
        <ele>204.42</ele>
        <time>2012-12-02T09:38:50Z</time>
      </trkpt>
      <trkpt lat="44.63243" lon="0.87822">
        <ele>202.98</ele>
        <time>2012-12-02T09:39:02Z</time>
      </trkpt>
      <trkpt lat="44.6327" lon="0.87824">
        <ele>201.05</ele>
        <time>2012-12-02T09:39:11Z</time>
      </trkpt>
      <trkpt lat="44.63321" lon="0.87829">
        <ele>202.98</ele>
        <time>2012-12-02T09:39:23Z</time>
      </trkpt>
      <trkpt lat="44.63354" lon="0.87831">
        <ele>202.98</ele>
        <time>2012-12-02T09:39:31Z</time>
      </trkpt>
      <trkpt lat="44.63386" lon="0.87832">
        <ele>201.53</ele>
        <time>2012-12-02T09:39:37Z</time>
      </trkpt>
      <trkpt lat="44.63463" lon="0.87835">
        <ele>198.17</ele>
        <time>2012-12-02T09:39:51Z</time>
      </trkpt>
      <trkpt lat="44.63489" lon="0.87837">
        <ele>197.69</ele>
        <time>2012-12-02T09:39:58Z</time>
      </trkpt>
      <trkpt lat="44.63496" lon="0.8781">
        <ele>197.69</ele>
        <time>2012-12-02T09:40:05Z</time>
      </trkpt>
      <trkpt lat="44.63477" lon="0.87727">
        <ele>198.17</ele>
        <time>2012-12-02T09:40:22Z</time>
      </trkpt>
      <trkpt lat="44.63456" lon="0.87632">
        <ele>200.57</ele>
        <time>2012-12-02T09:40:41Z</time>
      </trkpt>
      <trkpt lat="44.63426" lon="0.87559">
        <ele>202.49</ele>
        <time>2012-12-02T09:40:57Z</time>
      </trkpt>
      <trkpt lat="44.63394" lon="0.87483">
        <ele>203.94</ele>
        <time>2012-12-02T09:41:13Z</time>
      </trkpt>
      <trkpt lat="44.63369" lon="0.87426">
        <ele>206.34</ele>
        <time>2012-12-02T09:41:26Z</time>
      </trkpt>
      <trkpt lat="44.63333" lon="0.8735">
        <ele>213.07</ele>
        <time>2012-12-02T09:41:43Z</time>
      </trkpt>
      <trkpt lat="44.63303" lon="0.87293">
        <ele>215.95</ele>
        <time>2012-12-02T09:41:57Z</time>
      </trkpt>
      <trkpt lat="44.63286" lon="0.87206">
        <ele>215.95</ele>
        <time>2012-12-02T09:42:12Z</time>
      </trkpt>
      <trkpt lat="44.63259" lon="0.87147">
        <ele>214.51</ele>
        <time>2012-12-02T09:42:24Z</time>
      </trkpt>
      <trkpt lat="44.63253" lon="0.87139">
        <ele>214.51</ele>
        <time>2012-12-02T09:42:26Z</time>
      </trkpt>
      <trkpt lat="44.63191" lon="0.87106">
        <ele>212.11</ele>
        <time>2012-12-02T09:42:43Z</time>
      </trkpt>
      <trkpt lat="44.63124" lon="0.87119">
        <ele>209.7</ele>
        <time>2012-12-02T09:43:00Z</time>
      </trkpt>
      <trkpt lat="44.63089" lon="0.87149">
        <ele>208.74</ele>
        <time>2012-12-02T09:43:12Z</time>
      </trkpt>
      <trkpt lat="44.63087" lon="0.8715">
        <ele>207.78</ele>
        <time>2012-12-02T09:43:22Z</time>
      </trkpt>
    </trkseg>
  </trk>
</gpx>